Queen Sapphire — 9V7564 — position and weather

sailwx.info

Track history (hours):
 
Tides and Currents Weather Stations Pressure Air Temp Water Temp Dewpoint Dewpoint Depression Visibility Wind Speed Wind Dir Waves Ship Positions

Queen Sapphire

Last reported at 2014-Aug-21 21:33 UTC. Time now 2014-Aug-22 00:01 UTC.
Position N 36°24' E 140°53'.

Length 200 m; draft 9.3 m.

Type: Cargo ship. MMSI: 564254000.

Date/timePositionNaut miles runAvg speedWind from/ knotsBaromVisibWave heightAir tempDewpointWater temp
2014-Aug-21 21:33N 36°24' E 140°53'1513.9
2014-Aug-21 20:27N 36°31' E 141°09'5 5.4
2014-Aug-21 19:27N 36°26' E 141°08'1516.2
2014-Aug-21 18:31N 36°11' E 141°11'2116.5
2014-Aug-21 17:15N 35°50' E 141°11'1116.2
2014-Aug-21 16:33N 35°39' E 141°10'1615.6
2014-Aug-21 15:33N 35°25' E 141°02'3818.3
2014-Aug-21 13:27N 34°57' E 140°30'1918.6
2014-Aug-21 12:27N 34°47' E 140°10'1618.3
2014-Aug-21 11:33N 34°45' E 139°50'1514.9
2014-Aug-21 10:33N 34°57' E 139°38'1515.1
2014-Aug-21 09:33N 35°11' E 139°45'1111.5
2014-Aug-21 08:33N 35°22' E 139°42'6 5.6
2014-Aug-21 07:32N 35°27' E 139°41'0 0.0
2014-Aug-21 06:32N 35°27' E 139°41'0 0.0
2014-Aug-21 05:32N 35°27' E 139°41'0 0.0
2014-Aug-21 04:32N 35°27' E 139°41'0 0.0
2014-Aug-21 03:32N 35°27' E 139°41'0 0.0
2014-Aug-21 02:32N 35°27' E 139°41'0 0.0
2014-Aug-21 01:32N 35°27' E 139°41'0 0.0
2014-Aug-21 00:32N 35°27' E 139°41'0 0.0
2014-Aug-20 23:32N 35°27' E 139°41'0 0.0
2014-Aug-20 22:32N 35°27' E 139°41'3 3.1
2014-Aug-20 21:34N 35°25' E 139°43'9 9.0
2014-Aug-20 20:33N 35°16' E 139°46'1212.2
2014-Aug-20 19:33N 35°04' E 139°46'1515.1
2014-Aug-20 18:34N 34°49' E 139°42'6 5.1
2014-Aug-20 17:28N 34°44' E 139°45'6 6.2
2014-Aug-20 16:34N 34°42' E 139°39'5916.8
2014-Aug-20 13:04N 34°26' E 138°30'177 6.7
2014-Aug-19 10:29N 34°06' E 134°57'1212.4
2014-Aug-19 09:33N 34°17' E 134°58'1717.1
2014-Aug-19 08:33N 34°32' E 135°10'1211.1
2014-Aug-19 07:31N 34°41' E 135°17'0 0.4
2014-Aug-19 06:31N 34°42' E 135°17'0 0.0
2014-Aug-19 05:31N 34°42' E 135°17'0 0.0
2014-Aug-19 04:31N 34°42' E 135°17'0 0.0
2014-Aug-19 03:31N 34°42' E 135°17'0 0.0
2014-Aug-19 02:31N 34°42' E 135°17'0 0.0
2014-Aug-19 01:31N 34°42' E 135°17'0 0.0
2014-Aug-19 00:31N 34°42' E 135°17'0 0.0
2014-Aug-18 23:31N 34°42' E 135°17'0 0.0
2014-Aug-18 22:31N 34°42' E 135°17'0 0.0
2014-Aug-18 21:31N 34°42' E 135°17'0 0.0
2014-Aug-18 20:31N 34°42' E 135°17'0 0.0
2014-Aug-18 19:31N 34°42' E 135°17'0 0.0
2014-Aug-18 18:31N 34°42' E 135°17'0 0.0
2014-Aug-18 17:25N 34°42' E 135°17'0 0.0
2014-Aug-18 16:31N 34°42' E 135°17'0 0.0
2014-Aug-18 15:31N 34°42' E 135°17'0 0.0
2014-Aug-18 14:31N 34°42' E 135°17'0 0.0
2014-Aug-18 13:31N 34°42' E 135°17'0 0.0
2014-Aug-18 12:31N 34°42' E 135°17'0 0.0
2014-Aug-18 11:31N 34°42' E 135°17'0 0.0
2014-Aug-18 10:25N 34°42' E 135°17'0 0.0
2014-Aug-18 09:25N 34°42' E 135°17'0 0.0
2014-Aug-18 08:31N 34°42' E 135°17'0 0.0
2014-Aug-18 07:25N 34°42' E 135°17'0 0.0
2014-Aug-18 06:31N 34°42' E 135°17'0 0.0
2014-Aug-18 05:31N 34°42' E 135°17'0 0.0
2014-Aug-18 04:31N 34°42' E 135°17'0 0.0
2014-Aug-18 03:31N 34°42' E 135°17'0 0.0
2014-Aug-18 02:31N 34°42' E 135°17'0 0.4
2014-Aug-18 01:33N 34°41' E 135°17'1111.1
2014-Aug-18 00:33N 34°31' E 135°11'  
Track history (hours):
 
Tides and Currents Weather Stations Pressure Air Temp Water Temp Dewpoint Dewpoint Depression Visibility Wind Speed Wind Dir Waves Ship Positions

Queen Sapphire

Last reported at 2014-Aug-21 21:33 UTC. Time now 2014-Aug-22 00:01 UTC.
Position N 36°24' E 140°53'.

Length 200 m; draft 9.3 m.

Type: Cargo ship. MMSI: 564254000.

Date/timePositionNaut miles runAvg speedWind from/ knotsBaromVisibWave heightAir tempDewpointWater temp
2014-Aug-21 21:33N 36°24' E 140°53'1513.9
2014-Aug-21 20:27N 36°31' E 141°09'5 5.4
2014-Aug-21 19:27N 36°26' E 141°08'1516.2
2014-Aug-21 18:31N 36°11' E 141°11'2116.5
2014-Aug-21 17:15N 35°50' E 141°11'1116.2
2014-Aug-21 16:33N 35°39' E 141°10'1615.6
2014-Aug-21 15:33N 35°25' E 141°02'3818.3
2014-Aug-21 13:27N 34°57' E 140°30'1918.6
2014-Aug-21 12:27N 34°47' E 140°10'1618.3
2014-Aug-21 11:33N 34°45' E 139°50'1514.9
2014-Aug-21 10:33N 34°57' E 139°38'1515.1
2014-Aug-21 09:33N 35°11' E 139°45'1111.5
2014-Aug-21 08:33N 35°22' E 139°42'6 5.6
2014-Aug-21 07:32N 35°27' E 139°41'0 0.0
2014-Aug-21 06:32N 35°27' E 139°41'0 0.0
2014-Aug-21 05:32N 35°27' E 139°41'0 0.0
2014-Aug-21 04:32N 35°27' E 139°41'0 0.0
2014-Aug-21 03:32N 35°27' E 139°41'0 0.0
2014-Aug-21 02:32N 35°27' E 139°41'0 0.0
2014-Aug-21 01:32N 35°27' E 139°41'0 0.0
2014-Aug-21 00:32N 35°27' E 139°41'0 0.0
2014-Aug-20 23:32N 35°27' E 139°41'0 0.0
2014-Aug-20 22:32N 35°27' E 139°41'3 3.1
2014-Aug-20 21:34N 35°25' E 139°43'9 9.0
2014-Aug-20 20:33N 35°16' E 139°46'1212.2
2014-Aug-20 19:33N 35°04' E 139°46'1515.1
2014-Aug-20 18:34N 34°49' E 139°42'6 5.1
2014-Aug-20 17:28N 34°44' E 139°45'6 6.2
2014-Aug-20 16:34N 34°42' E 139°39'5916.8
2014-Aug-20 13:04N 34°26' E 138°30'177 6.7
2014-Aug-19 10:29N 34°06' E 134°57'1212.4
2014-Aug-19 09:33N 34°17' E 134°58'1717.1
2014-Aug-19 08:33N 34°32' E 135°10'1211.1
2014-Aug-19 07:31N 34°41' E 135°17'0 0.4
2014-Aug-19 06:31N 34°42' E 135°17'0 0.0
2014-Aug-19 05:31N 34°42' E 135°17'0 0.0
2014-Aug-19 04:31N 34°42' E 135°17'0 0.0
2014-Aug-19 03:31N 34°42' E 135°17'0 0.0
2014-Aug-19 02:31N 34°42' E 135°17'0 0.0
2014-Aug-19 01:31N 34°42' E 135°17'0 0.0
2014-Aug-19 00:31N 34°42' E 135°17'0 0.0
2014-Aug-18 23:31N 34°42' E 135°17'0 0.0
2014-Aug-18 22:31N 34°42' E 135°17'0 0.0
2014-Aug-18 21:31N 34°42' E 135°17'0 0.0
2014-Aug-18 20:31N 34°42' E 135°17'0 0.0
2014-Aug-18 19:31N 34°42' E 135°17'0 0.0
2014-Aug-18 18:31N 34°42' E 135°17'0 0.0
2014-Aug-18 17:25N 34°42' E 135°17'0 0.0
2014-Aug-18 16:31N 34°42' E 135°17'0 0.0
2014-Aug-18 15:31N 34°42' E 135°17'0 0.0
2014-Aug-18 14:31N 34°42' E 135°17'0 0.0
2014-Aug-18 13:31N 34°42' E 135°17'0 0.0
2014-Aug-18 12:31N 34°42' E 135°17'0 0.0
2014-Aug-18 11:31N 34°42' E 135°17'0 0.0
2014-Aug-18 10:25N 34°42' E 135°17'0 0.0
2014-Aug-18 09:25N 34°42' E 135°17'0 0.0
2014-Aug-18 08:31N 34°42' E 135°17'0 0.0
2014-Aug-18 07:25N 34°42' E 135°17'0 0.0
2014-Aug-18 06:31N 34°42' E 135°17'0 0.0
2014-Aug-18 05:31N 34°42' E 135°17'0 0.0
2014-Aug-18 04:31N 34°42' E 135°17'0 0.0
2014-Aug-18 03:31N 34°42' E 135°17'0 0.0
2014-Aug-18 02:31N 34°42' E 135°17'0 0.4
2014-Aug-18 01:33N 34°41' E 135°17'1111.1
2014-Aug-18 00:33N 34°31' E 135°11'  

Dump ship's entire track history